createdAt,value
2017-11-26T00:00:47.976Z,15.50
2017-11-26T00:02:29.774Z,16.50
2017-11-26T00:04:08.377Z,19.00
2017-11-26T00:05:49.877Z,16.50
2017-11-26T00:07:30.091Z,19.25
2017-11-26T00:09:12.195Z,25.25
2017-11-26T00:10:52.473Z,17.00
2017-11-26T00:12:32.488Z,17.00
2017-11-26T00:14:13.684Z,15.50
2017-11-26T00:16:02.478Z,18.25
2017-11-26T00:17:44.101Z,19.00
2017-11-26T00:19:28.988Z,18.00
2017-11-26T00:21:14.700Z,16.75
2017-11-26T00:22:57.202Z,16.75
2017-11-26T00:24:37.296Z,13.75
2017-11-26T00:26:17.967Z,17.00
2017-11-26T00:27:56.381Z,17.50
2017-11-26T00:29:38.073Z,15.75
2017-11-26T00:31:23.577Z,13.50
2017-11-26T00:33:02.289Z,12.50
2017-11-26T00:34:41.482Z,20.75
2017-11-26T00:36:22.070Z,19.75
2017-11-26T00:38:00.966Z,15.75
2017-11-26T00:39:39.562Z,13.25
2017-11-26T00:41:20.363Z,13.25
2017-11-26T00:43:01.084Z,15.50
2017-11-26T00:44:39.964Z,13.75
2017-11-26T00:46:24.140Z,10.75
2017-11-26T00:48:04.151Z,14.00
2017-11-26T00:49:43.925Z,14.50
2017-11-26T00:51:23.499Z,14.75
2017-11-26T00:53:03.778Z,13.75
2017-11-26T00:54:43.074Z,11.75
2017-11-26T00:56:22.483Z,21.25
2017-11-26T00:58:00.576Z,13.25
2017-11-26T00:59:39.695Z,12.50
2017-11-26T01:01:22.408Z,13.50
2017-11-26T01:03:03.002Z,13.00
2017-11-26T01:04:42.315Z,9.50
2017-11-26T01:06:22.514Z,8.00
2017-11-26T01:08:03.317Z,9.75
2017-11-26T01:09:42.126Z,12.75
2017-11-26T01:11:22.421Z,9.75
2017-11-26T01:13:02.637Z,10.50
2017-11-26T01:14:42.846Z,8.00
2017-11-26T01:16:22.176Z,10.75
2017-11-26T01:18:01.643Z,10.50
2017-11-26T01:19:42.139Z,12.50
2017-11-26T01:21:23.839Z,10.50
2017-11-26T01:23:03.134Z,10.50
2017-11-26T01:24:42.744Z,13.00
2017-11-26T01:26:26.048Z,11.25
2017-11-26T01:28:06.144Z,10.25
2017-11-26T01:29:47.445Z,13.00
2017-11-26T01:31:26.812Z,8.00
2017-11-26T01:33:08.351Z,7.00
2017-11-26T01:34:48.538Z,7.75
2017-11-26T01:36:27.440Z,9.75
2017-11-26T01:38:06.137Z,10.25
2017-11-26T01:39:47.632Z,11.75
2017-11-26T01:41:28.038Z,9.75
2017-11-26T01:43:07.938Z,8.25
2017-11-26T01:44:47.235Z,15.75
2017-11-26T01:46:26.039Z,10.00
2017-11-26T01:48:06.837Z,11.00
2017-11-26T01:49:45.839Z,11.25
2017-11-26T01:51:25.433Z,7.50
2017-11-26T01:53:04.139Z,8.00
2017-11-26T01:54:43.738Z,9.75
2017-11-26T01:56:23.957Z,13.50
2017-11-26T01:58:04.438Z,9.00
2017-11-26T01:59:43.568Z,14.50
2017-11-26T02:01:24.869Z,13.75
2017-11-26T02:03:05.854Z,11.25
2017-11-26T02:04:44.621Z,12.75
2017-11-26T02:06:24.536Z,13.25
2017-11-26T02:08:05.271Z,12.00
2017-11-26T02:09:45.586Z,11.00
2017-11-26T02:11:27.328Z,18.25
2017-11-26T02:13:13.063Z,14.25
2017-11-26T02:14:52.724Z,15.00
2017-11-26T02:16:31.727Z,11.25
2017-11-26T02:18:12.119Z,11.50
2017-11-26T02:19:52.419Z,12.00
2017-11-26T02:21:33.067Z,12.00
2017-11-26T02:23:16.878Z,13.75
2017-11-26T02:25:02.639Z,11.25
2017-11-26T02:26:50.938Z,10.00
2017-11-26T02:28:31.934Z,13.75
2017-11-26T02:30:12.722Z,19.25
2017-11-26T02:32:39.317Z,10.50
2017-11-26T02:34:37.911Z,12.00
2017-11-26T02:36:20.924Z,11.00
2017-11-26T02:38:00.019Z,15.25
2017-11-26T02:39:41.829Z,15.00
2017-11-26T02:41:22.142Z,14.00
2017-11-26T02:43:05.633Z,10.75
2017-11-26T02:44:45.446Z,11.00
2017-11-26T02:47:57.176Z,12.50
2017-11-26T02:49:38.259Z,10.50
2017-11-26T02:51:19.063Z,9.50
2017-11-26T02:53:00.749Z,9.50
2017-11-26T02:54:44.354Z,8.25
2017-11-26T02:56:23.686Z,11.00
2017-11-26T02:58:03.495Z,8.75
2017-11-26T02:59:43.782Z,11.00
2017-11-26T03:01:23.159Z,7.25
2017-11-26T03:03:01.687Z,10.25
2017-11-26T03:04:41.972Z,10.00
2017-11-26T03:06:23.463Z,8.75
2017-11-26T03:08:02.379Z,8.00
2017-11-26T03:09:42.777Z,8.50
2017-11-26T03:11:23.563Z,8.00
2017-11-26T03:13:06.200Z,11.75
2017-11-26T03:14:50.181Z,7.50
2017-11-26T03:18:08.660Z,11.25
2017-11-26T03:19:49.381Z,12.75
2017-11-26T03:21:29.882Z,10.00
2017-11-26T03:23:09.799Z,8.00
2017-11-26T03:24:48.762Z,8.00
2017-11-26T03:26:27.969Z,8.00
2017-11-26T03:28:07.772Z,14.00
2017-11-26T03:29:49.267Z,8.00
2017-11-26T03:31:28.980Z,10.25
2017-11-26T03:33:10.671Z,8.00
2017-11-26T03:34:51.265Z,8.25
2017-11-26T03:36:31.567Z,5.25
2017-11-26T03:38:10.269Z,8.75
2017-11-26T03:39:50.080Z,9.00
2017-11-26T03:41:30.584Z,9.00
2017-11-26T03:45:21.463Z,9.25
2017-11-26T03:47:02.793Z,8.50
2017-11-26T03:48:44.286Z,7.50
2017-11-26T03:50:23.590Z,6.75
2017-11-26T03:52:04.296Z,10.00
2017-11-26T03:53:43.194Z,8.50
2017-11-26T03:55:25.512Z,7.50
2017-11-26T03:57:04.595Z,8.50
2017-11-26T03:58:43.609Z,7.50
2017-11-26T04:00:23.603Z,7.50
2017-11-26T04:02:02.906Z,7.75
2017-11-26T04:03:43.533Z,7.00
2017-11-26T04:05:23.009Z,6.00
2017-11-26T04:07:02.414Z,6.50
2017-11-26T04:08:41.922Z,5.00
2017-11-26T04:10:22.021Z,8.00
2017-11-26T04:12:02.619Z,4.25
2017-11-26T04:13:43.544Z,5.00
2017-11-26T04:15:24.221Z,4.75
2017-11-26T04:17:06.216Z,7.25
2017-11-26T04:18:47.125Z,7.25
2017-11-26T04:20:28.819Z,8.00
2017-11-26T04:22:11.727Z,7.00
2017-11-26T04:23:53.639Z,5.00
2017-11-26T04:25:32.703Z,8.00
2017-11-26T04:27:16.999Z,8.75
2017-11-26T04:28:59.018Z,5.00
2017-11-26T04:30:40.501Z,8.00
2017-11-26T04:32:24.500Z,6.50
2017-11-26T04:34:03.394Z,7.00
2017-11-26T04:35:43.293Z,8.00
2017-11-26T04:37:23.591Z,4.75
2017-11-26T04:39:01.679Z,5.50
2017-11-26T04:40:43.599Z,5.00
2017-11-26T04:42:25.303Z,6.50
2017-11-26T04:44:06.408Z,8.00
2017-11-26T04:45:46.990Z,7.25
2017-11-26T04:47:28.191Z,8.00
2017-11-26T04:49:06.821Z,10.50
2017-11-26T04:50:46.699Z,6.50
2017-11-26T04:52:28.702Z,8.00
2017-11-26T04:54:08.492Z,9.75
2017-11-26T04:55:49.094Z,7.00
2017-11-26T04:57:28.989Z,9.75
2017-11-26T04:59:07.784Z,8.00
2017-11-26T05:00:48.797Z,8.00
2017-11-26T05:02:28.782Z,7.00
2017-11-26T05:04:08.302Z,7.25
2017-11-26T05:05:48.498Z,9.00
2017-11-26T05:07:28.525Z,8.00
2017-11-26T05:09:08.305Z,7.75
2017-11-26T05:10:49.384Z,7.00
2017-11-26T05:12:28.700Z,6.50
2017-11-26T05:14:10.297Z,7.75
2017-11-26T05:15:50.786Z,7.25
2017-11-26T05:17:31.285Z,7.00
2017-11-26T05:19:11.393Z,9.00
2017-11-26T05:20:52.312Z,7.25
2017-11-26T05:22:32.499Z,7.25
2017-11-26T05:24:12.726Z,7.00
2017-11-26T05:25:51.825Z,5.50
2017-11-26T05:27:32.497Z,6.50
2017-11-26T05:29:11.309Z,6.50
2017-11-26T05:30:50.401Z,6.50
2017-11-26T05:32:30.111Z,6.50
2017-11-26T05:34:09.601Z,4.75
2017-11-26T05:35:50.426Z,6.00
2017-11-26T05:37:29.814Z,9.75
2017-11-26T05:39:08.812Z,4.75
2017-11-26T05:40:47.900Z,5.00
2017-11-26T05:42:26.616Z,7.00
2017-11-26T05:44:05.599Z,7.25
2017-11-26T05:45:44.409Z,7.50
2017-11-26T05:47:24.603Z,4.00
2017-11-26T05:49:03.803Z,7.50
2017-11-26T05:50:43.902Z,7.00
2017-11-26T05:52:24.516Z,7.00
2017-11-26T05:54:04.613Z,6.00
2017-11-26T05:55:43.903Z,7.25
2017-11-26T05:57:23.905Z,8.00
2017-11-26T05:59:02.930Z,6.00
2017-11-26T06:00:44.096Z,6.00
2017-11-26T06:02:22.813Z,4.00
2017-11-26T06:04:03.214Z,4.25
2017-11-26T06:05:42.116Z,5.25
2017-11-26T06:07:23.047Z,7.75
2017-11-26T06:09:03.438Z,4.75
2017-11-26T06:10:43.443Z,5.50
2017-11-26T06:12:23.043Z,4.25
2017-11-26T06:14:01.950Z,4.75
2017-11-26T06:15:40.957Z,5.00
2017-11-26T06:17:20.354Z,6.00
2017-11-26T06:18:59.869Z,4.00
2017-11-26T06:22:16.664Z,5.00
2017-11-26T06:23:55.965Z,7.50
2017-11-26T06:25:37.566Z,5.00
2017-11-26T06:27:17.269Z,5.25
2017-11-26T06:28:56.969Z,6.00
2017-11-26T06:30:36.897Z,4.50
2017-11-26T06:32:17.783Z,5.00
2017-11-26T06:33:58.618Z,6.00
2017-11-26T06:37:12.988Z,4.00
2017-11-26T06:38:51.889Z,5.50
2017-11-26T06:40:32.022Z,7.75
2017-11-26T06:42:11.694Z,4.25
2017-11-26T06:43:51.593Z,6.50
2017-11-26T06:45:34.302Z,4.25
2017-11-26T06:47:12.909Z,7.75
2017-11-26T06:48:52.308Z,4.25
2017-11-26T06:50:34.503Z,7.00
2017-11-26T06:52:14.816Z,5.00
2017-11-26T06:53:53.615Z,5.00
2017-11-26T06:55:33.312Z,7.75
2017-11-26T06:57:11.937Z,2.50
2017-11-26T06:58:54.321Z,5.50
2017-11-26T07:00:33.518Z,4.50
2017-11-26T07:02:12.923Z,8.00
2017-11-26T07:03:52.919Z,7.00
2017-11-26T07:05:33.323Z,1.50
2017-11-26T07:07:16.739Z,7.50
2017-11-26T07:08:55.326Z,4.75
2017-11-26T07:10:35.442Z,7.00
2017-11-26T07:12:17.019Z,4.50
2017-11-26T07:13:57.121Z,5.00
2017-11-26T07:15:38.400Z,6.00
2017-11-26T07:17:18.688Z,7.00
2017-11-26T07:18:58.383Z,5.00
2017-11-26T07:20:38.004Z,7.00
2017-11-26T07:22:16.775Z,4.75
2017-11-26T07:23:55.557Z,7.75
2017-11-26T07:25:41.656Z,7.00
2017-11-26T07:27:21.978Z,7.25
2017-11-26T07:29:01.865Z,4.00
2017-11-26T07:30:42.078Z,6.00
2017-11-26T07:32:23.232Z,4.75
2017-11-26T07:34:02.581Z,7.25
2017-11-26T07:35:40.315Z,4.75
2017-11-26T07:37:18.796Z,6.25
2017-11-26T07:38:57.879Z,7.75
2017-11-26T07:40:38.698Z,6.25
2017-11-26T07:42:18.874Z,5.00
2017-11-26T07:43:58.703Z,5.75
2017-11-26T07:45:38.068Z,5.75
2017-11-26T07:47:20.073Z,6.75
2017-11-26T07:49:00.074Z,7.00
2017-11-26T07:50:40.778Z,8.00
2017-11-26T07:52:20.377Z,7.00
2017-11-26T07:53:59.178Z,4.25
2017-11-26T07:55:40.683Z,6.00
2017-11-26T07:57:18.042Z,4.50
2017-11-26T07:58:54.835Z,6.75
2017-11-26T08:00:33.774Z,4.00
2017-11-26T08:02:13.982Z,5.25
2017-11-26T08:03:53.208Z,5.00
2017-11-26T08:05:32.409Z,7.50
2017-11-26T08:07:10.717Z,5.50
2017-11-26T08:08:49.829Z,6.50
2017-11-26T08:10:29.334Z,6.50
2017-11-26T08:12:10.139Z,5.50
2017-11-26T08:13:49.842Z,7.00
2017-11-26T08:15:30.653Z,4.00
2017-11-26T08:17:09.645Z,4.00
2017-11-26T08:18:48.648Z,6.25
2017-11-26T08:20:27.650Z,4.00
2017-11-26T08:22:06.541Z,4.75
2017-11-26T08:23:45.243Z,7.75
2017-11-26T08:25:22.373Z,5.00
2017-11-26T08:27:01.072Z,5.00
2017-11-26T08:28:39.195Z,5.00
2017-11-26T08:30:19.642Z,5.00
2017-11-26T08:31:58.753Z,7.25
2017-11-26T08:33:38.034Z,4.75
2017-11-26T08:35:17.732Z,5.50
2017-11-26T08:36:58.631Z,4.75
2017-11-26T08:38:37.238Z,4.50
2017-11-26T08:40:16.046Z,4.50
2017-11-26T08:41:55.834Z,5.50
2017-11-26T08:43:35.542Z,5.00
2017-11-26T08:45:17.639Z,5.00
2017-11-26T08:46:56.638Z,6.50
2017-11-26T08:48:36.546Z,7.75
2017-11-26T08:50:16.246Z,7.50
2017-11-26T08:51:54.940Z,6.00
2017-11-26T08:53:33.741Z,4.75
2017-11-26T08:55:14.873Z,5.00
2017-11-26T08:56:54.447Z,5.50
2017-11-26T08:58:37.449Z,5.50
2017-11-26T09:00:19.350Z,4.00
2017-11-26T09:02:00.760Z,6.75
2017-11-26T09:03:42.265Z,3.50
2017-11-26T09:05:21.976Z,8.25
2017-11-26T09:07:02.276Z,5.25
2017-11-26T09:08:54.372Z,5.00
2017-11-26T09:10:34.077Z,7.75
2017-11-26T09:12:13.777Z,6.50
2017-11-26T09:13:55.776Z,7.00
2017-11-26T09:15:35.573Z,6.00
2017-11-26T09:17:16.184Z,7.00
2017-11-26T09:18:54.678Z,5.50
2017-11-26T09:20:33.576Z,5.00
2017-11-26T09:22:13.881Z,6.00
2017-11-26T09:23:53.677Z,7.75
2017-11-26T09:25:35.394Z,5.50
2017-11-26T09:27:17.486Z,4.00
2017-11-26T09:28:59.605Z,5.00
2017-11-26T09:30:41.768Z,5.50
2017-11-26T09:32:21.557Z,5.00
2017-11-26T09:34:01.652Z,4.00
2017-11-26T09:35:41.351Z,4.25
2017-11-26T09:37:19.953Z,4.75
2017-11-26T09:38:58.762Z,5.75
2017-11-26T09:40:40.967Z,5.00
2017-11-26T09:42:22.458Z,7.50
2017-11-26T09:44:02.550Z,7.00
2017-11-26T09:45:42.747Z,5.00
2017-11-26T09:47:24.251Z,6.00
2017-11-26T09:49:03.648Z,5.50
2017-11-26T09:50:44.501Z,6.00
2017-11-26T09:52:22.444Z,4.25
2017-11-26T09:54:04.869Z,6.00
2017-11-26T09:55:49.065Z,6.25
2017-11-26T09:57:31.150Z,6.75
2017-11-26T09:59:11.151Z,4.75
2017-11-26T10:00:54.747Z,6.00
2017-11-26T10:02:35.332Z,7.25
2017-11-26T10:04:19.453Z,5.00
2017-11-26T10:06:03.201Z,6.00
2017-11-26T10:07:46.187Z,5.50
2017-11-26T10:09:30.513Z,7.00
2017-11-26T10:11:17.897Z,3.00
2017-11-26T10:13:04.018Z,6.00
2017-11-26T10:14:47.797Z,7.25
2017-11-26T10:16:33.135Z,5.00
2017-11-26T10:18:15.823Z,4.75
2017-11-26T10:19:59.889Z,6.75
2017-11-26T10:21:43.536Z,6.50
2017-11-26T10:23:22.516Z,5.25
2017-11-26T10:25:08.010Z,6.50
2017-11-26T10:26:55.346Z,4.50
2017-11-26T10:28:38.265Z,4.00
2017-11-26T10:30:31.459Z,5.00
2017-11-26T10:32:32.377Z,5.00
2017-11-26T10:34:18.087Z,6.25
2017-11-26T10:36:07.167Z,4.75
2017-11-26T10:37:51.940Z,6.25
2017-11-26T10:39:40.847Z,6.75
2017-11-26T10:41:36.551Z,6.75
2017-11-26T10:43:21.967Z,11.75
2017-11-26T10:45:10.101Z,6.75
2017-11-26T10:47:03.528Z,6.75
2017-11-26T10:48:53.640Z,6.75
2017-11-26T10:50:42.822Z,5.00
2017-11-26T10:52:29.245Z,5.75
2017-11-26T10:54:17.458Z,5.00
2017-11-26T10:56:07.966Z,6.75
2017-11-26T10:57:52.926Z,4.75
2017-11-26T10:59:40.818Z,5.25
2017-11-26T11:01:35.324Z,6.00
2017-11-26T11:03:30.319Z,5.00
2017-11-26T11:05:16.940Z,7.50
2017-11-26T11:07:03.032Z,5.00
2017-11-26T11:08:49.972Z,8.75
2017-11-26T11:10:36.756Z,4.00
2017-11-26T11:12:24.426Z,4.75
2017-11-26T11:14:15.717Z,6.75
2017-11-26T11:16:02.373Z,6.00
2017-11-26T11:17:51.307Z,6.00
2017-11-26T11:19:39.524Z,7.25
2017-11-26T11:21:33.038Z,4.50
2017-11-26T11:23:22.434Z,7.75
2017-11-26T11:25:10.949Z,5.00
2017-11-26T11:27:04.022Z,5.75
2017-11-26T11:28:58.653Z,6.75
2017-11-26T11:30:47.755Z,4.50
2017-11-26T11:32:44.445Z,4.75
2017-11-26T11:34:29.123Z,4.00
2017-11-26T11:36:21.384Z,7.00
2017-11-26T11:38:12.264Z,8.00
2017-11-26T11:40:01.469Z,6.75
2017-11-26T11:41:59.200Z,7.75
2017-11-26T11:43:49.464Z,4.50
2017-11-26T11:45:40.370Z,6.75
2017-11-26T11:47:29.720Z,6.75
2017-11-26T11:49:21.758Z,7.25
2017-11-26T11:51:09.374Z,8.75
2017-11-26T11:53:02.862Z,5.00
2017-11-26T11:54:51.963Z,6.75
2017-11-26T11:56:36.873Z,6.25
2017-11-26T11:58:28.361Z,6.25
2017-11-26T12:00:19.568Z,7.75
2017-11-26T12:02:13.562Z,7.75
2017-11-26T12:04:05.079Z,4.50
2017-11-26T12:05:53.673Z,7.50
2017-11-26T12:07:44.245Z,6.00
2017-11-26T12:09:33.757Z,7.50
2017-11-26T12:11:21.558Z,6.75
2017-11-26T12:13:07.254Z,5.50
2017-11-26T12:15:02.764Z,6.00
2017-11-26T12:17:01.557Z,4.75
2017-11-26T12:18:54.773Z,8.75
2017-11-26T12:20:47.768Z,7.75
2017-11-26T12:22:33.061Z,7.75
2017-11-26T12:24:23.009Z,6.75
2017-11-26T12:26:12.480Z,8.00
2017-11-26T12:28:00.975Z,8.00
2017-11-26T12:29:48.905Z,8.75
2017-11-26T12:31:41.920Z,7.25
2017-11-26T12:33:39.398Z,8.50
2017-11-26T12:35:25.812Z,8.75
2017-11-26T12:37:16.294Z,5.00
2017-11-26T12:39:08.264Z,8.00
2017-11-26T12:40:58.902Z,8.25
2017-11-26T12:42:49.313Z,8.50
2017-11-26T12:44:37.910Z,9.50
2017-11-26T12:46:41.206Z,11.50
2017-11-26T12:48:28.136Z,11.00
2017-11-26T12:50:23.519Z,7.75
2017-11-26T12:52:13.808Z,9.00
2017-11-26T12:55:54.110Z,6.75
2017-11-26T12:57:46.703Z,9.00
2017-11-26T12:59:39.302Z,6.75
2017-11-26T13:01:30.109Z,11.00
2017-11-26T13:03:28.706Z,8.50
2017-11-26T13:05:27.205Z,9.00
2017-11-26T13:07:20.553Z,10.75
2017-11-26T13:09:16.212Z,12.25
2017-11-26T13:11:25.206Z,7.75
2017-11-26T13:13:21.606Z,11.25
2017-11-26T13:15:11.603Z,11.00
2017-11-26T13:17:00.304Z,10.00
2017-11-26T13:18:57.304Z,11.25
2017-11-26T13:21:01.099Z,8.25
2017-11-26T13:22:50.583Z,8.50
2017-11-26T13:24:42.735Z,8.50
2017-11-26T13:26:38.109Z,9.00
2017-11-26T13:28:29.104Z,10.75
2017-11-26T13:30:27.390Z,10.75
2017-11-26T13:32:25.731Z,8.00
2017-11-26T13:34:20.537Z,8.50
2017-11-26T13:36:16.305Z,10.25
2017-11-26T13:38:09.200Z,9.50
2017-11-26T13:40:03.165Z,9.00
2017-11-26T13:41:56.899Z,9.50
2017-11-26T13:43:56.693Z,10.00
2017-11-26T13:46:00.106Z,9.00
2017-11-26T13:47:48.992Z,9.00
2017-11-26T13:49:40.528Z,6.50
2017-11-26T13:51:40.632Z,11.75
2017-11-26T13:53:33.093Z,8.00
2017-11-26T13:55:18.431Z,9.00
2017-11-26T13:57:06.133Z,9.50
2017-11-26T13:58:56.467Z,9.75
2017-11-26T14:00:48.410Z,8.75
2017-11-26T14:02:43.397Z,10.75
2017-11-26T14:04:28.202Z,10.00
2017-11-26T14:06:20.286Z,12.25
2017-11-26T14:08:15.014Z,9.75
2017-11-26T14:10:05.662Z,9.75
2017-11-26T14:11:59.830Z,10.00
2017-11-26T14:13:50.894Z,6.50
2017-11-26T14:15:45.616Z,11.00
2017-11-26T14:17:46.952Z,10.75
2017-11-26T14:19:43.880Z,9.25
2017-11-26T14:23:33.985Z,9.75
2017-11-26T14:25:32.786Z,10.00
2017-11-26T14:27:25.968Z,8.00
2017-11-26T14:29:15.773Z,9.75
2017-11-26T14:31:17.237Z,6.50
2017-11-26T14:33:14.489Z,9.25
2017-11-26T14:35:07.484Z,8.75
2017-11-26T14:37:08.282Z,7.75
2017-11-26T14:38:58.261Z,9.00
2017-11-26T14:41:01.132Z,10.75
2017-11-26T14:43:11.717Z,9.50
2017-11-26T14:44:59.322Z,11.50
2017-11-26T14:48:59.894Z,11.75
2017-11-26T14:50:47.488Z,10.75
2017-11-26T14:52:36.736Z,8.00
2017-11-26T14:56:34.906Z,8.75
2017-11-26T14:58:21.595Z,8.25
2017-11-26T15:00:07.638Z,11.75
2017-11-26T15:02:00.575Z,9.00
2017-11-26T15:03:50.741Z,11.00
2017-11-26T15:05:43.341Z,8.75
2017-11-26T15:09:35.149Z,9.25
2017-11-26T15:11:31.654Z,10.25
2017-11-26T15:13:23.934Z,10.25
2017-11-26T15:15:18.547Z,9.00
2017-11-26T15:17:21.516Z,10.50
2017-11-26T15:19:17.938Z,9.25
2017-11-26T15:21:08.775Z,9.00
2017-11-26T15:23:01.013Z,11.75
2017-11-26T15:24:47.742Z,8.75
2017-11-26T15:26:48.311Z,13.00
2017-11-26T15:28:35.070Z,12.00
2017-11-26T15:30:32.140Z,10.25
2017-11-26T15:32:18.758Z,10.00
2017-11-26T15:34:13.065Z,8.00
2017-11-26T15:36:13.844Z,8.25
2017-11-26T15:38:01.946Z,11.00
2017-11-26T15:39:50.543Z,9.50
2017-11-26T15:41:39.501Z,12.50
2017-11-26T15:43:32.040Z,10.00
2017-11-26T15:45:32.545Z,9.75
2017-11-26T15:47:23.871Z,12.00
2017-11-26T15:49:22.230Z,10.00
2017-11-26T15:51:19.351Z,6.00
2017-11-26T15:53:04.831Z,8.50
2017-11-26T15:54:56.637Z,10.75
2017-11-26T15:56:47.932Z,9.50
2017-11-26T15:58:38.329Z,8.25
2017-11-26T16:00:36.181Z,9.25
2017-11-26T16:02:28.727Z,11.25
2017-11-26T16:04:33.931Z,7.00
2017-11-26T16:08:45.037Z,10.25
2017-11-26T16:10:49.743Z,10.00
2017-11-26T16:12:46.471Z,11.00
2017-11-26T16:14:46.926Z,12.00
2017-11-26T16:16:43.335Z,13.25
2017-11-26T16:18:42.242Z,9.00
2017-11-26T16:20:37.961Z,9.75
2017-11-26T16:22:28.926Z,12.25
2017-11-26T16:24:24.128Z,11.75
2017-11-26T16:26:11.476Z,10.50
2017-11-26T16:28:13.179Z,11.00
2017-11-26T16:30:03.976Z,11.75
2017-11-26T16:31:59.022Z,9.75
2017-11-26T16:33:51.999Z,11.00
2017-11-26T16:35:39.605Z,9.00
2017-11-26T16:37:30.529Z,23.50
2017-11-26T16:39:21.207Z,12.50
2017-11-26T16:41:12.211Z,9.75
2017-11-26T16:45:09.032Z,12.75
2017-11-26T16:47:04.015Z,17.25
2017-11-26T16:48:55.622Z,9.50
2017-11-26T16:50:42.935Z,14.75
2017-11-26T16:52:38.129Z,11.00
2017-11-26T16:56:31.930Z,12.25
2017-11-26T16:58:24.229Z,12.25
2017-11-26T17:00:12.708Z,9.50
2017-11-26T17:02:13.763Z,9.75
2017-11-26T17:04:05.690Z,11.75
2017-11-26T17:06:00.890Z,12.00
2017-11-26T17:07:56.790Z,10.00
2017-11-26T17:09:54.293Z,11.00
2017-11-26T17:11:45.980Z,14.75
2017-11-26T17:13:37.994Z,9.25
2017-11-26T17:15:32.894Z,13.25
2017-11-26T17:17:22.984Z,15.25
2017-11-26T17:19:16.789Z,12.50
2017-11-26T17:21:07.033Z,14.00
2017-11-26T17:23:21.882Z,14.50
2017-11-26T17:25:20.692Z,12.00
2017-11-26T17:27:13.454Z,15.00
2017-11-26T17:29:02.783Z,15.00
2017-11-26T17:30:56.490Z,15.25
2017-11-26T17:32:47.390Z,13.50
2017-11-26T17:34:38.381Z,14.75
2017-11-26T17:40:42.182Z,15.00
2017-11-26T17:42:34.379Z,12.25
2017-11-26T17:44:35.075Z,14.75
2017-11-26T17:46:28.011Z,13.50
2017-11-26T17:50:18.081Z,13.50
2017-11-26T17:52:08.291Z,12.50
2017-11-26T17:54:08.879Z,12.00
2017-11-26T17:55:59.585Z,15.50
2017-11-26T17:57:50.778Z,16.50
2017-11-26T17:59:39.888Z,16.00
2017-11-26T18:01:29.088Z,12.50
2017-11-26T18:03:30.292Z,16.50
2017-11-26T18:05:25.198Z,12.00
2017-11-26T18:07:19.516Z,17.50
2017-11-26T18:09:30.989Z,18.00
2017-11-26T18:12:01.813Z,16.50
2017-11-26T18:15:46.990Z,12.50
2017-11-26T18:17:46.005Z,13.25
2017-11-26T18:19:41.118Z,16.00
2017-11-26T18:21:31.940Z,12.00
2017-11-26T18:23:33.071Z,12.00
2017-11-26T18:25:31.915Z,16.25
2017-11-26T18:27:21.493Z,12.00
2017-11-26T18:29:14.711Z,12.25
2017-11-26T18:31:06.805Z,13.50
2017-11-26T18:33:21.062Z,12.25
2017-11-26T18:35:10.828Z,12.00
2017-11-26T18:37:08.726Z,14.75
2017-11-26T18:39:00.877Z,12.75
2017-11-26T18:40:56.209Z,12.25
2017-11-26T18:42:42.028Z,13.75
2017-11-26T18:44:40.036Z,15.25
2017-11-26T18:46:29.669Z,12.25
2017-11-26T18:48:16.445Z,16.25
2017-11-26T18:51:52.850Z,8.50
2017-11-26T18:53:42.410Z,12.25
2017-11-26T18:55:31.328Z,14.50
2017-11-26T18:57:17.840Z,12.50
2017-11-26T19:00:40.749Z,15.00
2017-11-26T19:02:32.408Z,14.00
2017-11-26T19:04:28.596Z,14.75
2017-11-26T19:06:24.799Z,12.00
2017-11-26T19:08:22.324Z,14.75
2017-11-26T19:12:09.863Z,12.75
2017-11-26T19:13:58.362Z,12.00
2017-11-26T19:15:48.045Z,13.00
2017-11-26T19:17:35.325Z,14.50
2017-11-26T19:19:25.631Z,10.25
2017-11-26T19:21:16.363Z,12.50
2017-11-26T19:23:02.811Z,11.00
2017-11-26T19:24:48.898Z,13.25
2017-11-26T19:26:39.513Z,11.50
2017-11-26T19:28:23.118Z,15.25
2017-11-26T19:30:08.592Z,13.00
2017-11-26T19:31:53.624Z,14.75
2017-11-26T19:33:38.155Z,16.00
2017-11-26T19:35:22.323Z,12.50
2017-11-26T19:37:11.590Z,12.00
2017-11-26T19:39:03.221Z,12.75
2017-11-26T19:40:50.224Z,13.00
2017-11-26T19:42:37.087Z,12.50
2017-11-26T19:44:26.878Z,12.00
2017-11-26T19:46:12.897Z,11.00
2017-11-26T19:47:56.144Z,9.50
2017-11-26T19:49:45.016Z,12.75
2017-11-26T19:51:36.689Z,14.75
2017-11-26T19:53:23.215Z,12.50
2017-11-26T19:55:09.016Z,12.50
2017-11-26T19:56:56.310Z,12.00
2017-11-26T19:58:43.004Z,14.50
2017-11-26T20:00:36.404Z,18.00
2017-11-26T20:02:22.015Z,12.00
2017-11-26T20:04:08.528Z,10.75
2017-11-26T20:06:02.887Z,12.00
2017-11-26T20:07:49.921Z,12.00
2017-11-26T20:09:38.425Z,10.75
2017-11-26T20:11:32.299Z,12.00
2017-11-26T20:13:31.378Z,10.75
2017-11-26T20:15:26.402Z,14.00
2017-11-26T20:17:28.472Z,12.00
2017-11-26T20:19:24.956Z,12.00
2017-11-26T20:21:27.277Z,12.25
2017-11-26T20:23:29.415Z,11.75
2017-11-26T20:25:25.276Z,9.50
2017-11-26T20:27:53.788Z,12.50
2017-11-26T20:29:42.362Z,11.50
2017-11-26T20:31:38.190Z,12.00
2017-11-26T20:33:32.765Z,9.25
2017-11-26T20:35:31.491Z,12.00
2017-11-26T20:37:37.514Z,12.25
2017-11-26T20:39:32.247Z,18.75
2017-11-26T20:41:24.081Z,11.00
2017-11-26T20:43:18.044Z,9.00
2017-11-26T20:45:15.452Z,13.00
2017-11-26T20:47:15.112Z,11.75
2017-11-26T20:49:08.209Z,10.00
2017-11-26T20:51:01.057Z,11.00
2017-11-26T20:53:10.017Z,11.00
2017-11-26T20:55:15.056Z,12.00
2017-11-26T20:57:10.388Z,12.50
2017-11-26T20:59:15.970Z,8.25
2017-11-26T21:01:08.909Z,11.00
2017-11-26T21:03:00.231Z,12.00
2017-11-26T21:05:06.184Z,9.75
2017-11-26T21:06:58.532Z,8.75
2017-11-26T21:08:53.523Z,9.25
2017-11-26T21:11:03.373Z,11.75
2017-11-26T21:13:20.010Z,9.00
2017-11-26T21:15:14.781Z,11.50
2017-11-26T21:17:10.835Z,7.50
2017-11-26T21:19:06.095Z,10.75
2017-11-26T21:21:01.862Z,11.00
2017-11-26T21:22:54.380Z,9.00
2017-11-26T21:24:53.212Z,8.50
2017-11-26T21:26:44.483Z,9.25
2017-11-26T21:28:30.547Z,9.00
2017-11-26T21:30:24.804Z,13.00
2017-11-26T21:32:20.082Z,9.00
2017-11-26T21:34:07.382Z,8.75
2017-11-26T21:35:57.968Z,12.50
2017-11-26T21:37:46.373Z,15.00
2017-11-26T21:39:34.181Z,11.25
2017-11-26T21:41:23.110Z,12.25
2017-11-26T21:43:02.098Z,18.75
2017-11-26T21:44:41.490Z,15.00
2017-11-26T21:46:20.499Z,12.00
2017-11-26T21:48:00.659Z,10.50
2017-11-26T21:49:40.745Z,10.00
2017-11-26T21:51:19.749Z,10.00
2017-11-26T21:52:59.946Z,8.25
2017-11-26T21:54:39.046Z,12.25
2017-11-26T21:56:20.768Z,11.75
2017-11-26T21:58:00.658Z,9.00
2017-11-26T21:59:39.881Z,9.50
2017-11-26T22:01:21.849Z,8.75
2017-11-26T22:03:02.260Z,9.00
2017-11-26T22:04:42.456Z,11.00
2017-11-26T22:06:25.663Z,11.00
2017-11-26T22:08:05.157Z,9.75
2017-11-26T22:09:44.090Z,10.00
2017-11-26T22:11:24.177Z,8.25
2017-11-26T22:13:03.353Z,9.25
2017-11-26T22:14:46.164Z,8.00
2017-11-26T22:16:26.961Z,5.25
2017-11-26T22:18:08.387Z,5.25
2017-11-26T22:19:47.788Z,7.00
2017-11-26T22:21:28.183Z,5.50
2017-11-26T22:23:10.458Z,4.00
2017-11-26T22:24:51.069Z,4.25
2017-11-26T22:26:30.768Z,5.00
2017-11-26T22:28:11.670Z,5.75
2017-11-26T22:29:51.869Z,7.50
2017-11-26T22:31:30.969Z,11.00
2017-11-26T22:33:10.771Z,6.00
2017-11-26T22:34:51.054Z,8.00
2017-11-26T22:36:32.374Z,5.50
2017-11-26T22:38:12.154Z,6.00
2017-11-26T22:39:53.758Z,8.00
2017-11-26T22:41:34.744Z,6.00
2017-11-26T22:43:13.738Z,7.00
2017-11-26T22:44:52.631Z,8.00
2017-11-26T22:46:33.644Z,6.00
2017-11-26T22:48:14.341Z,5.25
2017-11-26T22:49:54.548Z,5.00
2017-11-26T22:51:36.047Z,6.00
2017-11-26T22:53:15.633Z,5.00
2017-11-26T22:54:56.180Z,7.50
2017-11-26T22:56:36.135Z,5.25
2017-11-26T22:58:14.936Z,6.00
2017-11-26T22:59:54.432Z,8.00
2017-11-26T23:01:35.316Z,4.50
2017-11-26T23:03:16.336Z,5.75
2017-11-26T23:04:55.328Z,6.50
2017-11-26T23:06:37.292Z,6.75
2017-11-26T23:08:16.875Z,5.25
2017-11-26T23:09:56.250Z,7.00
2017-11-26T23:11:35.977Z,7.50
2017-11-26T23:13:17.276Z,6.50
2017-11-26T23:14:57.967Z,9.50
2017-11-26T23:16:39.274Z,10.25
2017-11-26T23:18:18.973Z,7.00
2017-11-26T23:19:57.779Z,8.00
2017-11-26T23:21:41.195Z,8.25
2017-11-26T23:23:20.209Z,8.00
2017-11-26T23:25:02.502Z,6.50
2017-11-26T23:26:42.304Z,8.00
2017-11-26T23:28:26.017Z,6.75
2017-11-26T23:30:07.197Z,5.00
2017-11-26T23:31:47.917Z,8.00
2017-11-26T23:33:27.308Z,9.00
2017-11-26T23:35:08.002Z,7.50
2017-11-26T23:36:47.608Z,8.00
2017-11-26T23:38:28.639Z,11.75
2017-11-26T23:42:25.420Z,11.00
2017-11-26T23:44:06.323Z,5.75
2017-11-26T23:45:45.719Z,6.00
2017-11-26T23:47:25.621Z,7.50
2017-11-26T23:49:05.331Z,5.00
2017-11-26T23:50:47.976Z,8.00
2017-11-26T23:52:25.200Z,6.25
2017-11-26T23:54:04.726Z,6.00